sensor_id;sensor_type;location;lat;lon;timestamp;P1;durP1;ratioP1;P2;durP2;ratioP2
66139;SDS011;52945;51.908;8.364;2023-05-28T00:00:51;6.53;;;2.75;;
66139;SDS011;52945;51.908;8.364;2023-05-28T00:03:51;6.28;;;3.20;;
66139;SDS011;52945;51.908;8.364;2023-05-28T00:06:52;7.13;;;2.78;;
66139;SDS011;52945;51.908;8.364;2023-05-28T00:09:55;7.88;;;2.90;;
66139;SDS011;52945;51.908;8.364;2023-05-28T00:12:55;8.05;;;2.83;;
66139;SDS011;52945;51.908;8.364;2023-05-28T00:15:56;7.85;;;3.38;;
66139;SDS011;52945;51.908;8.364;2023-05-28T00:18:56;7.85;;;3.60;;
66139;SDS011;52945;51.908;8.364;2023-05-28T00:21:57;6.68;;;3.08;;
66139;SDS011;52945;51.908;8.364;2023-05-28T00:24:58;6.93;;;3.65;;
66139;SDS011;52945;51.908;8.364;2023-05-28T00:27:58;7.47;;;3.65;;
66139;SDS011;52945;51.908;8.364;2023-05-28T00:30:59;9.48;;;3.78;;
66139;SDS011;52945;51.908;8.364;2023-05-28T00:34:00;7.43;;;3.58;;
66139;SDS011;52945;51.908;8.364;2023-05-28T00:37:01;8.65;;;3.47;;
66139;SDS011;52945;51.908;8.364;2023-05-28T00:40:02;5.75;;;3.17;;
66139;SDS011;52945;51.908;8.364;2023-05-28T00:43:03;6.05;;;3.47;;
66139;SDS011;52945;51.908;8.364;2023-05-28T00:46:04;9.63;;;4.13;;
66139;SDS011;52945;51.908;8.364;2023-05-28T00:49:06;7.60;;;3.88;;
66139;SDS011;52945;51.908;8.364;2023-05-28T00:52:09;9.05;;;4.35;;
66139;SDS011;52945;51.908;8.364;2023-05-28T00:55:13;7.63;;;2.83;;
66139;SDS011;52945;51.908;8.364;2023-05-28T00:58:14;8.30;;;3.28;;
66139;SDS011;52945;51.908;8.364;2023-05-28T01:01:16;5.53;;;2.80;;
66139;SDS011;52945;51.908;8.364;2023-05-28T01:04:17;7.70;;;3.28;;
66139;SDS011;52945;51.908;8.364;2023-05-28T01:07:18;6.55;;;2.72;;
66139;SDS011;52945;51.908;8.364;2023-05-28T01:10:19;7.13;;;2.85;;
66139;SDS011;52945;51.908;8.364;2023-05-28T01:13:19;9.65;;;2.97;;
66139;SDS011;52945;51.908;8.364;2023-05-28T01:16:20;6.32;;;2.72;;
66139;SDS011;52945;51.908;8.364;2023-05-28T01:19:22;4.82;;;2.75;;
66139;SDS011;52945;51.908;8.364;2023-05-28T01:22:28;7.35;;;2.83;;
66139;SDS011;52945;51.908;8.364;2023-05-28T01:25:30;7.72;;;2.80;;
66139;SDS011;52945;51.908;8.364;2023-05-28T01:28:31;5.75;;;2.70;;
66139;SDS011;52945;51.908;8.364;2023-05-28T01:31:32;6.70;;;3.05;;
66139;SDS011;52945;51.908;8.364;2023-05-28T01:34:33;6.07;;;3.05;;
66139;SDS011;52945;51.908;8.364;2023-05-28T01:37:35;8.02;;;3.08;;
66139;SDS011;52945;51.908;8.364;2023-05-28T01:40:44;8.15;;;3.45;;
66139;SDS011;52945;51.908;8.364;2023-05-28T01:43:46;5.55;;;2.58;;
66139;SDS011;52945;51.908;8.364;2023-05-28T01:46:47;7.10;;;3.20;;
66139;SDS011;52945;51.908;8.364;2023-05-28T01:49:49;8.82;;;3.50;;
66139;SDS011;52945;51.908;8.364;2023-05-28T01:52:50;10.02;;;3.42;;
66139;SDS011;52945;51.908;8.364;2023-05-28T01:55:51;6.35;;;3.05;;
66139;SDS011;52945;51.908;8.364;2023-05-28T01:58:51;7.55;;;3.30;;
66139;SDS011;52945;51.908;8.364;2023-05-28T02:01:52;5.72;;;2.80;;
66139;SDS011;52945;51.908;8.364;2023-05-28T02:04:53;7.25;;;3.38;;
66139;SDS011;52945;51.908;8.364;2023-05-28T02:07:53;5.07;;;3.13;;
66139;SDS011;52945;51.908;8.364;2023-05-28T02:10:54;5.78;;;2.70;;
66139;SDS011;52945;51.908;8.364;2023-05-28T02:13:55;6.85;;;3.33;;
66139;SDS011;52945;51.908;8.364;2023-05-28T02:16:56;8.43;;;3.33;;
66139;SDS011;52945;51.908;8.364;2023-05-28T02:19:56;4.93;;;2.90;;
66139;SDS011;52945;51.908;8.364;2023-05-28T02:22:57;6.35;;;3.10;;
66139;SDS011;52945;51.908;8.364;2023-05-28T02:25:58;6.78;;;3.10;;
66139;SDS011;52945;51.908;8.364;2023-05-28T02:28:58;5.45;;;3.03;;
66139;SDS011;52945;51.908;8.364;2023-05-28T02:31:59;8.20;;;3.08;;
66139;SDS011;52945;51.908;8.364;2023-05-28T02:35:01;7.90;;;3.58;;
66139;SDS011;52945;51.908;8.364;2023-05-28T02:38:01;8.27;;;3.17;;
66139;SDS011;52945;51.908;8.364;2023-05-28T02:41:02;8.38;;;2.72;;
66139;SDS011;52945;51.908;8.364;2023-05-28T02:44:02;7.75;;;2.95;;
66139;SDS011;52945;51.908;8.364;2023-05-28T02:47:03;8.63;;;3.10;;
66139;SDS011;52945;51.908;8.364;2023-05-28T02:50:04;8.57;;;3.17;;
66139;SDS011;52945;51.908;8.364;2023-05-28T02:53:05;6.90;;;3.22;;
66139;SDS011;52945;51.908;8.364;2023-05-28T02:56:05;5.78;;;2.92;;
66139;SDS011;52945;51.908;8.364;2023-05-28T02:59:06;6.97;;;3.53;;
66139;SDS011;52945;51.908;8.364;2023-05-28T03:02:07;6.90;;;2.95;;
66139;SDS011;52945;51.908;8.364;2023-05-28T03:05:07;6.28;;;2.85;;
66139;SDS011;52945;51.908;8.364;2023-05-28T03:08:08;8.02;;;2.97;;
66139;SDS011;52945;51.908;8.364;2023-05-28T03:11:08;7.22;;;2.95;;
66139;SDS011;52945;51.908;8.364;2023-05-28T03:14:09;6.32;;;2.88;;
66139;SDS011;52945;51.908;8.364;2023-05-28T03:17:10;7.28;;;3.35;;
66139;SDS011;52945;51.908;8.364;2023-05-28T03:20:10;5.90;;;2.78;;
66139;SDS011;52945;51.908;8.364;2023-05-28T03:23:11;7.53;;;3.58;;
66139;SDS011;52945;51.908;8.364;2023-05-28T03:26:12;8.27;;;3.15;;
66139;SDS011;52945;51.908;8.364;2023-05-28T03:29:13;9.07;;;3.25;;
66139;SDS011;52945;51.908;8.364;2023-05-28T03:32:13;7.22;;;3.15;;
66139;SDS011;52945;51.908;8.364;2023-05-28T03:35:14;8.95;;;3.03;;
66139;SDS011;52945;51.908;8.364;2023-05-28T03:38:14;7.72;;;2.78;;
66139;SDS011;52945;51.908;8.364;2023-05-28T03:41:15;8.50;;;3.13;;
66139;SDS011;52945;51.908;8.364;2023-05-28T03:44:15;6.05;;;2.72;;
66139;SDS011;52945;51.908;8.364;2023-05-28T03:47:17;6.07;;;2.90;;
66139;SDS011;52945;51.908;8.364;2023-05-28T03:50:18;7.78;;;3.08;;
66139;SDS011;52945;51.908;8.364;2023-05-28T03:53:18;8.05;;;2.90;;
66139;SDS011;52945;51.908;8.364;2023-05-28T03:56:19;7.43;;;3.00;;
66139;SDS011;52945;51.908;8.364;2023-05-28T03:59:20;7.38;;;3.28;;
66139;SDS011;52945;51.908;8.364;2023-05-28T04:02:20;6.75;;;3.10;;
66139;SDS011;52945;51.908;8.364;2023-05-28T04:05:21;8.48;;;3.35;;
66139;SDS011;52945;51.908;8.364;2023-05-28T04:08:21;7.38;;;2.95;;
66139;SDS011;52945;51.908;8.364;2023-05-28T04:11:22;9.00;;;3.15;;
66139;SDS011;52945;51.908;8.364;2023-05-28T04:14:24;8.15;;;2.90;;
66139;SDS011;52945;51.908;8.364;2023-05-28T04:17:26;7.22;;;3.13;;
66139;SDS011;52945;51.908;8.364;2023-05-28T04:20:27;10.48;;;3.22;;
66139;SDS011;52945;51.908;8.364;2023-05-28T04:23:28;5.95;;;2.70;;
66139;SDS011;52945;51.908;8.364;2023-05-28T04:26:28;5.13;;;2.50;;
66139;SDS011;52945;51.908;8.364;2023-05-28T04:29:30;10.50;;;3.25;;
66139;SDS011;52945;51.908;8.364;2023-05-28T04:32:31;6.32;;;3.17;;
66139;SDS011;52945;51.908;8.364;2023-05-28T04:35:32;9.95;;;3.25;;
66139;SDS011;52945;51.908;8.364;2023-05-28T04:38:32;7.35;;;3.10;;
66139;SDS011;52945;51.908;8.364;2023-05-28T04:41:33;8.45;;;3.60;;
66139;SDS011;52945;51.908;8.364;2023-05-28T04:44:34;6.20;;;3.55;;
66139;SDS011;52945;51.908;8.364;2023-05-28T04:47:35;10.75;;;3.60;;
66139;SDS011;52945;51.908;8.364;2023-05-28T04:50:36;8.85;;;3.42;;
66139;SDS011;52945;51.908;8.364;2023-05-28T04:53:37;6.53;;;3.03;;
66139;SDS011;52945;51.908;8.364;2023-05-28T04:56:37;8.60;;;3.13;;
66139;SDS011;52945;51.908;8.364;2023-05-28T04:59:38;6.85;;;3.20;;
66139;SDS011;52945;51.908;8.364;2023-05-28T05:02:39;7.63;;;3.00;;
66139;SDS011;52945;51.908;8.364;2023-05-28T05:05:41;8.35;;;3.30;;
66139;SDS011;52945;51.908;8.364;2023-05-28T05:08:41;4.97;;;2.75;;
66139;SDS011;52945;51.908;8.364;2023-05-28T05:11:42;7.88;;;3.08;;
66139;SDS011;52945;51.908;8.364;2023-05-28T05:14:43;5.25;;;2.55;;
66139;SDS011;52945;51.908;8.364;2023-05-28T05:17:43;9.50;;;3.20;;
66139;SDS011;52945;51.908;8.364;2023-05-28T05:20:44;7.35;;;3.13;;
66139;SDS011;52945;51.908;8.364;2023-05-28T05:23:44;10.07;;;3.40;;
66139;SDS011;52945;51.908;8.364;2023-05-28T05:26:45;6.72;;;3.10;;
66139;SDS011;52945;51.908;8.364;2023-05-28T05:29:45;10.32;;;3.17;;
66139;SDS011;52945;51.908;8.364;2023-05-28T05:32:46;6.18;;;2.53;;
66139;SDS011;52945;51.908;8.364;2023-05-28T05:35:47;5.80;;;2.55;;
66139;SDS011;52945;51.908;8.364;2023-05-28T05:38:47;4.60;;;2.75;;
66139;SDS011;52945;51.908;8.364;2023-05-28T05:41:48;7.57;;;2.78;;
66139;SDS011;52945;51.908;8.364;2023-05-28T05:44:48;7.65;;;2.40;;
66139;SDS011;52945;51.908;8.364;2023-05-28T05:47:49;5.40;;;2.63;;
66139;SDS011;52945;51.908;8.364;2023-05-28T05:50:50;6.40;;;2.53;;
66139;SDS011;52945;51.908;8.364;2023-05-28T05:53:53;5.85;;;2.33;;
66139;SDS011;52945;51.908;8.364;2023-05-28T05:56:53;5.18;;;2.17;;
66139;SDS011;52945;51.908;8.364;2023-05-28T05:59:54;7.05;;;2.33;;
66139;SDS011;52945;51.908;8.364;2023-05-28T06:02:55;6.68;;;2.33;;
66139;SDS011;52945;51.908;8.364;2023-05-28T06:05:56;5.47;;;2.10;;
66139;SDS011;52945;51.908;8.364;2023-05-28T06:08:57;7.93;;;2.58;;
66139;SDS011;52945;51.908;8.364;2023-05-28T06:11:57;5.97;;;2.30;;
66139;SDS011;52945;51.908;8.364;2023-05-28T06:14:58;4.78;;;2.38;;
66139;SDS011;52945;51.908;8.364;2023-05-28T06:18:00;5.15;;;1.95;;
66139;SDS011;52945;51.908;8.364;2023-05-28T06:21:01;8.02;;;2.60;;
66139;SDS011;52945;51.908;8.364;2023-05-28T06:24:03;7.32;;;2.13;;
66139;SDS011;52945;51.908;8.364;2023-05-28T06:27:04;7.13;;;2.50;;
66139;SDS011;52945;51.908;8.364;2023-05-28T06:30:05;3.95;;;2.40;;
66139;SDS011;52945;51.908;8.364;2023-05-28T06:33:07;3.95;;;2.40;;
66139;SDS011;52945;51.908;8.364;2023-05-28T06:36:09;4.53;;;2.13;;
66139;SDS011;52945;51.908;8.364;2023-05-28T06:39:10;6.00;;;2.60;;
66139;SDS011;52945;51.908;8.364;2023-05-28T06:42:10;7.95;;;2.10;;
66139;SDS011;52945;51.908;8.364;2023-05-28T06:45:11;6.43;;;2.17;;
66139;SDS011;52945;51.908;8.364;2023-05-28T06:48:12;4.22;;;2.00;;
66139;SDS011;52945;51.908;8.364;2023-05-28T06:51:12;5.88;;;2.40;;
66139;SDS011;52945;51.908;8.364;2023-05-28T06:54:13;6.30;;;2.00;;
66139;SDS011;52945;51.908;8.364;2023-05-28T06:57:14;6.18;;;2.15;;
66139;SDS011;52945;51.908;8.364;2023-05-28T07:00:15;6.47;;;2.05;;
66139;SDS011;52945;51.908;8.364;2023-05-28T07:03:16;3.38;;;2.03;;
66139;SDS011;52945;51.908;8.364;2023-05-28T07:06:17;3.72;;;1.77;;
66139;SDS011;52945;51.908;8.364;2023-05-28T07:12:19;4.88;;;1.88;;
66139;SDS011;52945;51.908;8.364;2023-05-28T07:18:21;3.30;;;1.80;;
66139;SDS011;52945;51.908;8.364;2023-05-28T07:21:23;6.30;;;1.85;;
66139;SDS011;52945;51.908;8.364;2023-05-28T07:24:24;6.78;;;1.92;;
66139;SDS011;52945;51.908;8.364;2023-05-28T07:30:25;3.85;;;1.60;;
66139;SDS011;52945;51.908;8.364;2023-05-28T07:33:26;4.07;;;1.75;;
66139;SDS011;52945;51.908;8.364;2023-05-28T07:36:26;6.28;;;1.90;;
66139;SDS011;52945;51.908;8.364;2023-05-28T07:39:27;5.45;;;1.77;;
66139;SDS011;52945;51.908;8.364;2023-05-28T07:42:27;3.95;;;1.73;;
66139;SDS011;52945;51.908;8.364;2023-05-28T07:48:28;4.72;;;1.65;;
66139;SDS011;52945;51.908;8.364;2023-05-28T07:54:31;3.75;;;1.67;;
66139;SDS011;52945;51.908;8.364;2023-05-28T07:57:33;4.80;;;2.00;;
66139;SDS011;52945;51.908;8.364;2023-05-28T08:03:36;3.25;;;1.65;;
66139;SDS011;52945;51.908;8.364;2023-05-28T08:09:38;2.08;;;1.40;;
66139;SDS011;52945;51.908;8.364;2023-05-28T08:12:41;3.50;;;1.50;;
66139;SDS011;52945;51.908;8.364;2023-05-28T08:18:42;4.13;;;1.40;;
66139;SDS011;52945;51.908;8.364;2023-05-28T08:24:43;3.70;;;1.45;;
66139;SDS011;52945;51.908;8.364;2023-05-28T08:30:44;3.33;;;1.60;;
66139;SDS011;52945;51.908;8.364;2023-05-28T08:36:45;3.10;;;1.48;;
66139;SDS011;52945;51.908;8.364;2023-05-28T08:42:46;4.82;;;1.60;;
66139;SDS011;52945;51.908;8.364;2023-05-28T08:45:52;3.40;;;1.38;;
66139;SDS011;52945;51.908;8.364;2023-05-28T08:48:53;4.35;;;1.73;;
66139;SDS011;52945;51.908;8.364;2023-05-28T08:54:55;3.60;;;2.13;;
66139;SDS011;52945;51.908;8.364;2023-05-28T08:57:55;4.30;;;1.73;;
66139;SDS011;52945;51.908;8.364;2023-05-28T09:00:56;3.10;;;1.35;;
66139;SDS011;52945;51.908;8.364;2023-05-28T09:03:57;4.65;;;1.80;;
66139;SDS011;52945;51.908;8.364;2023-05-28T09:06:57;4.00;;;1.65;;
66139;SDS011;52945;51.908;8.364;2023-05-28T09:09:58;3.80;;;1.45;;
66139;SDS011;52945;51.908;8.364;2023-05-28T09:12:59;2.22;;;1.45;;
66139;SDS011;52945;51.908;8.364;2023-05-28T09:16:00;2.78;;;1.45;;
66139;SDS011;52945;51.908;8.364;2023-05-28T09:19:02;3.67;;;1.33;;
66139;SDS011;52945;51.908;8.364;2023-05-28T09:22:04;3.58;;;1.40;;
66139;SDS011;52945;51.908;8.364;2023-05-28T09:25:07;2.03;;;1.15;;
66139;SDS011;52945;51.908;8.364;2023-05-28T09:28:09;2.95;;;1.33;;
66139;SDS011;52945;51.908;8.364;2023-05-28T09:31:12;3.25;;;1.25;;
66139;SDS011;52945;51.908;8.364;2023-05-28T09:34:14;3.22;;;1.30;;
66139;SDS011;52945;51.908;8.364;2023-05-28T09:37:18;2.53;;;1.50;;
66139;SDS011;52945;51.908;8.364;2023-05-28T09:40:20;3.15;;;1.67;;
66139;SDS011;52945;51.908;8.364;2023-05-28T09:43:27;3.35;;;1.75;;
66139;SDS011;52945;51.908;8.364;2023-05-28T09:46:29;3.47;;;1.35;;
66139;SDS011;52945;51.908;8.364;2023-05-28T09:49:34;2.70;;;1.33;;
66139;SDS011;52945;51.908;8.364;2023-05-28T09:52:34;2.55;;;1.38;;
66139;SDS011;52945;51.908;8.364;2023-05-28T09:55:42;5.88;;;1.67;;
66139;SDS011;52945;51.908;8.364;2023-05-28T09:58:43;3.53;;;1.70;;
66139;SDS011;52945;51.908;8.364;2023-05-28T10:01:55;4.38;;;1.42;;
66139;SDS011;52945;51.908;8.364;2023-05-28T10:04:59;1.48;;;1.13;;
66139;SDS011;52945;51.908;8.364;2023-05-28T10:08:07;4.32;;;1.60;;
66139;SDS011;52945;51.908;8.364;2023-05-28T10:11:12;3.28;;;1.50;;
66139;SDS011;52945;51.908;8.364;2023-05-28T10:14:15;3.85;;;1.67;;
66139;SDS011;52945;51.908;8.364;2023-05-28T10:17:16;4.30;;;1.45;;
66139;SDS011;52945;51.908;8.364;2023-05-28T10:20:17;2.80;;;1.45;;
66139;SDS011;52945;51.908;8.364;2023-05-28T10:23:19;3.28;;;1.30;;
66139;SDS011;52945;51.908;8.364;2023-05-28T10:26:20;3.25;;;1.88;;
66139;SDS011;52945;51.908;8.364;2023-05-28T10:29:21;6.10;;;1.55;;
66139;SDS011;52945;51.908;8.364;2023-05-28T10:32:22;4.70;;;1.50;;
66139;SDS011;52945;51.908;8.364;2023-05-28T10:35:23;4.38;;;1.50;;
66139;SDS011;52945;51.908;8.364;2023-05-28T10:38:23;3.42;;;1.75;;
66139;SDS011;52945;51.908;8.364;2023-05-28T10:41:25;3.15;;;1.33;;
66139;SDS011;52945;51.908;8.364;2023-05-28T10:44:51;3.67;;;1.45;;
66139;SDS011;52945;51.908;8.364;2023-05-28T10:48:14;5.43;;;2.33;;
66139;SDS011;52945;51.908;8.364;2023-05-28T10:51:16;2.90;;;1.42;;
66139;SDS011;52945;51.908;8.364;2023-05-28T10:57:39;5.45;;;1.63;;
66139;SDS011;52945;51.908;8.364;2023-05-28T11:00:44;2.97;;;1.50;;
66139;SDS011;52945;51.908;8.364;2023-05-28T11:03:46;4.43;;;1.73;;
66139;SDS011;52945;51.908;8.364;2023-05-28T11:06:51;3.88;;;1.60;;
66139;SDS011;52945;51.908;8.364;2023-05-28T11:09:52;4.40;;;1.70;;
66139;SDS011;52945;51.908;8.364;2023-05-28T11:12:53;3.58;;;1.98;;
66139;SDS011;52945;51.908;8.364;2023-05-28T11:15:53;1.95;;;1.48;;
66139;SDS011;52945;51.908;8.364;2023-05-28T11:19:04;6.68;;;1.70;;
66139;SDS011;52945;51.908;8.364;2023-05-28T11:22:08;3.90;;;1.95;;
66139;SDS011;52945;51.908;8.364;2023-05-28T11:25:10;4.85;;;1.85;;
66139;SDS011;52945;51.908;8.364;2023-05-28T11:28:12;8.57;;;2.70;;
66139;SDS011;52945;51.908;8.364;2023-05-28T11:31:12;5.70;;;1.70;;
66139;SDS011;52945;51.908;8.364;2023-05-28T11:34:13;3.70;;;1.60;;
66139;SDS011;52945;51.908;8.364;2023-05-28T11:37:14;2.88;;;1.73;;
66139;SDS011;52945;51.908;8.364;2023-05-28T11:40:15;4.35;;;1.67;;
66139;SDS011;52945;51.908;8.364;2023-05-28T11:43:16;4.20;;;1.50;;
66139;SDS011;52945;51.908;8.364;2023-05-28T11:46:16;6.78;;;2.05;;
66139;SDS011;52945;51.908;8.364;2023-05-28T11:49:17;4.60;;;2.45;;
66139;SDS011;52945;51.908;8.364;2023-05-28T11:52:19;5.72;;;1.83;;
66139;SDS011;52945;51.908;8.364;2023-05-28T11:55:20;3.35;;;1.63;;
66139;SDS011;52945;51.908;8.364;2023-05-28T11:58:29;3.88;;;2.15;;
66139;SDS011;52945;51.908;8.364;2023-05-28T12:01:33;4.80;;;1.80;;
66139;SDS011;52945;51.908;8.364;2023-05-28T12:04:34;6.55;;;3.13;;
66139;SDS011;52945;51.908;8.364;2023-05-28T12:07:35;4.00;;;2.03;;
66139;SDS011;52945;51.908;8.364;2023-05-28T12:10:36;2.88;;;1.77;;
66139;SDS011;52945;51.908;8.364;2023-05-28T12:13:36;4.10;;;2.10;;
66139;SDS011;52945;51.908;8.364;2023-05-28T12:16:42;4.13;;;1.77;;
66139;SDS011;52945;51.908;8.364;2023-05-28T12:19:49;4.47;;;2.05;;
66139;SDS011;52945;51.908;8.364;2023-05-28T12:22:59;5.00;;;2.03;;
66139;SDS011;52945;51.908;8.364;2023-05-28T12:26:08;3.58;;;1.77;;
66139;SDS011;52945;51.908;8.364;2023-05-28T12:29:10;4.50;;;1.90;;
66139;SDS011;52945;51.908;8.364;2023-05-28T12:32:10;4.97;;;2.28;;
66139;SDS011;52945;51.908;8.364;2023-05-28T12:35:11;6.80;;;3.05;;
66139;SDS011;52945;51.908;8.364;2023-05-28T12:38:12;5.38;;;2.30;;
66139;SDS011;52945;51.908;8.364;2023-05-28T12:41:14;5.28;;;2.70;;
66139;SDS011;52945;51.908;8.364;2023-05-28T12:44:15;4.28;;;2.20;;
66139;SDS011;52945;51.908;8.364;2023-05-28T12:47:16;5.95;;;2.35;;
66139;SDS011;52945;51.908;8.364;2023-05-28T12:50:16;4.65;;;1.90;;
66139;SDS011;52945;51.908;8.364;2023-05-28T12:53:17;3.65;;;1.48;;
66139;SDS011;52945;51.908;8.364;2023-05-28T12:56:17;3.92;;;1.77;;
66139;SDS011;52945;51.908;8.364;2023-05-28T13:02:22;4.55;;;1.70;;
66139;SDS011;52945;51.908;8.364;2023-05-28T13:05:22;4.45;;;2.13;;
66139;SDS011;52945;51.908;8.364;2023-05-28T13:08:23;3.88;;;1.98;;
66139;SDS011;52945;51.908;8.364;2023-05-28T13:11:24;5.45;;;1.80;;
66139;SDS011;52945;51.908;8.364;2023-05-28T13:14:24;3.70;;;1.60;;
66139;SDS011;52945;51.908;8.364;2023-05-28T13:17:25;4.18;;;1.80;;
66139;SDS011;52945;51.908;8.364;2023-05-28T13:20:25;5.63;;;1.95;;
66139;SDS011;52945;51.908;8.364;2023-05-28T13:23:26;5.32;;;1.80;;
66139;SDS011;52945;51.908;8.364;2023-05-28T13:26:27;5.13;;;1.73;;
66139;SDS011;52945;51.908;8.364;2023-05-28T13:29:29;3.92;;;1.67;;
66139;SDS011;52945;51.908;8.364;2023-05-28T13:32:30;3.78;;;1.88;;
66139;SDS011;52945;51.908;8.364;2023-05-28T13:35:30;3.47;;;1.83;;
66139;SDS011;52945;51.908;8.364;2023-05-28T13:38:31;3.92;;;1.80;;
66139;SDS011;52945;51.908;8.364;2023-05-28T13:41:32;4.28;;;1.75;;
66139;SDS011;52945;51.908;8.364;2023-05-28T13:44:33;5.22;;;1.95;;
66139;SDS011;52945;51.908;8.364;2023-05-28T13:47:34;3.40;;;1.88;;
66139;SDS011;52945;51.908;8.364;2023-05-28T13:50:35;4.38;;;2.15;;
66139;SDS011;52945;51.908;8.364;2023-05-28T13:53:36;8.25;;;2.00;;
66139;SDS011;52945;51.908;8.364;2023-05-28T13:56:37;4.60;;;1.88;;
66139;SDS011;52945;51.908;8.364;2023-05-28T13:59:38;2.85;;;1.40;;
66139;SDS011;52945;51.908;8.364;2023-05-28T14:02:39;4.78;;;1.92;;
66139;SDS011;52945;51.908;8.364;2023-05-28T14:05:39;6.07;;;2.28;;
66139;SDS011;52945;51.908;8.364;2023-05-28T14:08:40;2.97;;;1.52;;
66139;SDS011;52945;51.908;8.364;2023-05-28T14:11:41;6.22;;;2.15;;
66139;SDS011;52945;51.908;8.364;2023-05-28T14:14:41;4.80;;;2.20;;
66139;SDS011;52945;51.908;8.364;2023-05-28T14:17:42;3.40;;;1.70;;
66139;SDS011;52945;51.908;8.364;2023-05-28T14:20:42;3.60;;;1.70;;
66139;SDS011;52945;51.908;8.364;2023-05-28T14:23:43;3.75;;;1.80;;
66139;SDS011;52945;51.908;8.364;2023-05-28T14:26:44;3.50;;;1.80;;
66139;SDS011;52945;51.908;8.364;2023-05-28T14:29:44;5.82;;;1.90;;
66139;SDS011;52945;51.908;8.364;2023-05-28T14:32:45;3.63;;;1.70;;
66139;SDS011;52945;51.908;8.364;2023-05-28T14:35:46;3.75;;;1.55;;
66139;SDS011;52945;51.908;8.364;2023-05-28T14:38:46;4.43;;;2.25;;
66139;SDS011;52945;51.908;8.364;2023-05-28T14:41:47;5.03;;;1.60;;
66139;SDS011;52945;51.908;8.364;2023-05-28T14:44:47;6.45;;;1.88;;
66139;SDS011;52945;51.908;8.364;2023-05-28T14:47:48;5.93;;;1.83;;
66139;SDS011;52945;51.908;8.364;2023-05-28T14:50:49;4.00;;;1.63;;
66139;SDS011;52945;51.908;8.364;2023-05-28T14:53:49;4.38;;;1.70;;
66139;SDS011;52945;51.908;8.364;2023-05-28T14:56:50;4.68;;;1.77;;
66139;SDS011;52945;51.908;8.364;2023-05-28T14:59:51;4.63;;;1.98;;
66139;SDS011;52945;51.908;8.364;2023-05-28T15:02:53;6.60;;;1.88;;
66139;SDS011;52945;51.908;8.364;2023-05-28T15:05:53;4.50;;;1.92;;
66139;SDS011;52945;51.908;8.364;2023-05-28T15:08:54;4.60;;;1.88;;
66139;SDS011;52945;51.908;8.364;2023-05-28T15:11:55;3.55;;;1.73;;
66139;SDS011;52945;51.908;8.364;2023-05-28T15:14:55;4.63;;;1.73;;
66139;SDS011;52945;51.908;8.364;2023-05-28T15:17:56;6.50;;;2.20;;
66139;SDS011;52945;51.908;8.364;2023-05-28T15:20:56;7.53;;;2.05;;
66139;SDS011;52945;51.908;8.364;2023-05-28T15:23:57;4.10;;;1.70;;
66139;SDS011;52945;51.908;8.364;2023-05-28T15:26:58;3.63;;;1.70;;
66139;SDS011;52945;51.908;8.364;2023-05-28T15:29:58;2.80;;;1.75;;
66139;SDS011;52945;51.908;8.364;2023-05-28T15:32:59;5.93;;;2.00;;
66139;SDS011;52945;51.908;8.364;2023-05-28T15:36:02;5.13;;;2.03;;
66139;SDS011;52945;51.908;8.364;2023-05-28T15:39:03;2.85;;;1.80;;
66139;SDS011;52945;51.908;8.364;2023-05-28T15:42:05;5.60;;;1.90;;
66139;SDS011;52945;51.908;8.364;2023-05-28T15:45:06;4.70;;;2.13;;
66139;SDS011;52945;51.908;8.364;2023-05-28T15:48:07;7.00;;;2.90;;
66139;SDS011;52945;51.908;8.364;2023-05-28T15:51:08;18.65;;;7.55;;
66139;SDS011;52945;51.908;8.364;2023-05-28T15:54:11;8.75;;;3.55;;
66139;SDS011;52945;51.908;8.364;2023-05-28T15:57:12;5.72;;;2.33;;
66139;SDS011;52945;51.908;8.364;2023-05-28T16:00:13;3.67;;;2.00;;
66139;SDS011;52945;51.908;8.364;2023-05-28T16:03:16;5.38;;;2.10;;
66139;SDS011;52945;51.908;8.364;2023-05-28T16:06:19;7.38;;;2.35;;
66139;SDS011;52945;51.908;8.364;2023-05-28T16:09:20;4.55;;;2.28;;
66139;SDS011;52945;51.908;8.364;2023-05-28T16:12:21;6.03;;;2.35;;
66139;SDS011;52945;51.908;8.364;2023-05-28T16:15:27;4.78;;;2.30;;
66139;SDS011;52945;51.908;8.364;2023-05-28T16:18:29;6.30;;;2.50;;
66139;SDS011;52945;51.908;8.364;2023-05-28T16:21:30;4.00;;;2.08;;
66139;SDS011;52945;51.908;8.364;2023-05-28T16:24:31;9.50;;;3.75;;
66139;SDS011;52945;51.908;8.364;2023-05-28T16:27:33;7.65;;;2.67;;
66139;SDS011;52945;51.908;8.364;2023-05-28T16:30:35;3.20;;;2.10;;
66139;SDS011;52945;51.908;8.364;2023-05-28T16:33:36;8.98;;;3.33;;
66139;SDS011;52945;51.908;8.364;2023-05-28T16:36:36;5.40;;;2.72;;
66139;SDS011;52945;51.908;8.364;2023-05-28T16:39:39;6.93;;;2.25;;
66139;SDS011;52945;51.908;8.364;2023-05-28T16:42:40;6.13;;;2.50;;
66139;SDS011;52945;51.908;8.364;2023-05-28T16:45:42;4.57;;;2.20;;
66139;SDS011;52945;51.908;8.364;2023-05-28T16:48:43;8.27;;;3.47;;
66139;SDS011;52945;51.908;8.364;2023-05-28T16:51:44;9.55;;;3.88;;
66139;SDS011;52945;51.908;8.364;2023-05-28T16:54:45;9.15;;;3.72;;
66139;SDS011;52945;51.908;8.364;2023-05-28T16:57:46;7.57;;;3.08;;
66139;SDS011;52945;51.908;8.364;2023-05-28T17:00:47;7.10;;;3.10;;
66139;SDS011;52945;51.908;8.364;2023-05-28T17:03:47;6.10;;;3.42;;
66139;SDS011;52945;51.908;8.364;2023-05-28T17:06:52;5.85;;;3.28;;
66139;SDS011;52945;51.908;8.364;2023-05-28T17:09:55;5.97;;;2.83;;
66139;SDS011;52945;51.908;8.364;2023-05-28T17:12:56;8.13;;;2.95;;
66139;SDS011;52945;51.908;8.364;2023-05-28T17:15:56;6.18;;;2.78;;
66139;SDS011;52945;51.908;8.364;2023-05-28T17:18:57;7.95;;;2.50;;
66139;SDS011;52945;51.908;8.364;2023-05-28T17:21:57;6.47;;;2.20;;
66139;SDS011;52945;51.908;8.364;2023-05-28T17:24:58;6.50;;;2.58;;
66139;SDS011;52945;51.908;8.364;2023-05-28T17:27:58;8.20;;;2.45;;
66139;SDS011;52945;51.908;8.364;2023-05-28T17:30:59;5.47;;;1.92;;
66139;SDS011;52945;51.908;8.364;2023-05-28T17:34:00;5.53;;;2.20;;
66139;SDS011;52945;51.908;8.364;2023-05-28T17:37:00;4.30;;;1.80;;
66139;SDS011;52945;51.908;8.364;2023-05-28T17:40:01;6.05;;;2.20;;
66139;SDS011;52945;51.908;8.364;2023-05-28T17:43:02;4.55;;;2.45;;
66139;SDS011;52945;51.908;8.364;2023-05-28T17:46:02;7.45;;;2.63;;
66139;SDS011;52945;51.908;8.364;2023-05-28T17:49:03;7.10;;;2.53;;
66139;SDS011;52945;51.908;8.364;2023-05-28T17:52:04;6.85;;;2.05;;
66139;SDS011;52945;51.908;8.364;2023-05-28T17:55:05;5.32;;;2.15;;
66139;SDS011;52945;51.908;8.364;2023-05-28T17:58:06;5.07;;;2.08;;
66139;SDS011;52945;51.908;8.364;2023-05-28T18:01:06;7.50;;;2.38;;
66139;SDS011;52945;51.908;8.364;2023-05-28T18:04:07;6.25;;;3.10;;
66139;SDS011;52945;51.908;8.364;2023-05-28T18:07:08;6.10;;;2.78;;
66139;SDS011;52945;51.908;8.364;2023-05-28T18:10:09;4.85;;;2.03;;
66139;SDS011;52945;51.908;8.364;2023-05-28T18:13:09;2.40;;;1.70;;
66139;SDS011;52945;51.908;8.364;2023-05-28T18:16:10;4.10;;;2.20;;
66139;SDS011;52945;51.908;8.364;2023-05-28T18:19:11;4.53;;;2.10;;
66139;SDS011;52945;51.908;8.364;2023-05-28T18:22:12;4.25;;;2.08;;
66139;SDS011;52945;51.908;8.364;2023-05-28T18:25:13;5.20;;;2.10;;
66139;SDS011;52945;51.908;8.364;2023-05-28T18:28:15;5.97;;;2.22;;
66139;SDS011;52945;51.908;8.364;2023-05-28T18:31:16;5.03;;;2.00;;
66139;SDS011;52945;51.908;8.364;2023-05-28T18:34:16;8.02;;;2.38;;
66139;SDS011;52945;51.908;8.364;2023-05-28T18:37:17;5.68;;;2.05;;
66139;SDS011;52945;51.908;8.364;2023-05-28T18:40:17;4.03;;;1.90;;
66139;SDS011;52945;51.908;8.364;2023-05-28T18:43:19;5.50;;;2.47;;
66139;SDS011;52945;51.908;8.364;2023-05-28T18:46:19;5.70;;;2.50;;
66139;SDS011;52945;51.908;8.364;2023-05-28T18:49:20;5.18;;;2.53;;
66139;SDS011;52945;51.908;8.364;2023-05-28T18:52:21;6.50;;;2.30;;
66139;SDS011;52945;51.908;8.364;2023-05-28T18:55:22;5.32;;;2.28;;
66139;SDS011;52945;51.908;8.364;2023-05-28T18:58:22;5.05;;;1.98;;